Time;durP1;ratioP1;P1;durP2;ratioP2;P2;SDS_P1;SDS_P2;PMS_P1;PMS_P2;Temp;Humidity;BMP_temperature;BMP_pressure;BME280_temperature;BME280_humidity;BME280_pressure;Samples;Min_cycle;Max_cycle;Signal;HPM_P1;HPM_P2
2024/01/08 00:01:27;;;;;;;25.60;7.38;;;;;;;10.58;99.41;118928.66;5089200;28;20124;-69
2024/01/08 00:03:52;;;;;;;20.98;7.47;;;;;;;10.49;99.39;118937.31;5088477;28;20036;-73
2024/01/08 00:06:18;;;;;;;27.83;7.78;;;;;;;10.60;99.39;119367.16;5086984;28;20516;-69
2024/01/08 00:08:44;;;;;;;22.85;6.70;;;;;;;10.28;99.34;119419.28;5088429;28;20753;-69
2024/01/08 00:11:09;;;;;;;22.13;6.55;;;;;;;10.66;99.38;119648.53;5069609;28;20510;-69
2024/01/08 00:13:35;;;;;;;21.17;7.40;;;;;;;10.45;99.34;119771.13;5088233;28;20074;-69
2024/01/08 00:16:00;;;;;;;23.60;7.20;;;;;;;10.75;99.39;119629.75;5087130;28;20094;-72
2024/01/08 00:18:37;;;;;;;22.42;6.82;;;;;;;10.71;99.38;119390.09;5088042;28;20547;-69
2024/01/08 00:21:02;;;;;;;21.85;6.22;;;;;;;10.13;99.31;118874.41;5091729;28;20082;-69
2024/01/08 00:23:29;;;;;;;16.35;6.75;;;;;;;10.39;99.33;118779.47;5091511;28;20024;-69
2024/01/08 00:25:55;;;;;;;19.77;6.50;;;;;;;10.52;99.34;118520.66;5091540;28;20115;-69
2024/01/08 00:28:20;;;;;;;15.88;7.03;;;;;;;10.37;99.34;118282.47;5092292;28;20473;-69
2024/01/08 00:30:46;;;;;;;21.02;6.40;;;;;;;9.99;99.28;118143.47;5073591;28;20085;-70
2024/01/08 00:33:11;;;;;;;25.73;8.52;;;;;;;10.28;99.29;118180.41;5073529;28;20054;-70
2024/01/08 00:35:36;;;;;;;24.13;10.90;;;;;;;10.67;99.35;118269.25;5091418;28;20035;-69
2024/01/08 00:38:02;;;;;;;21.75;8.85;;;;;;;10.27;99.31;117977.66;5073665;28;20027;-69
2024/01/08 00:40:29;;;;;;;23.23;8.38;;;;;;;10.63;99.37;118102.91;5091689;28;20111;-69
2024/01/08 00:42:55;;;;;;;18.50;8.43;;;;;;;10.63;99.37;118008.34;5092195;28;20035;-69
2024/01/08 00:45:20;;;;;;;17.10;7.22;;;;;;;10.60;99.36;118005.00;5091826;28;20084;-70
2024/01/08 00:47:45;;;;;;;18.83;7.60;;;;;;;10.16;99.29;117907.44;5073204;28;20090;-69
2024/01/08 00:50:13;;;;;;;17.73;7.22;;;;;;;10.25;99.30;118146.38;5091491;28;20044;-68
2024/01/08 00:52:39;;;;;;;22.00;7.68;;;;;;;10.35;99.31;118200.31;5090166;28;20524;-68
2024/01/08 00:55:06;;;;;;;21.20;7.57;;;;;;;10.38;99.34;118344.16;5092035;28;20036;-68
2024/01/08 00:57:33;;;;;;;21.08;8.70;;;;;;;10.21;99.29;118669.66;5086271;28;20040;-69
2024/01/08 00:59:58;;;;;;;26.40;9.15;;;;;;;10.16;99.29;119145.00;5072078;28;20145;-68
2024/01/08 01:02:24;;;;;;;34.58;10.00;;;;;;;10.48;99.33;119522.13;5090916;28;20509;-69
2024/01/08 01:04:49;;;;;;;27.50;10.18;;;;;;;10.21;99.29;119815.03;5091265;28;20111;-68
2024/01/08 01:07:16;;;;;;;30.13;9.82;;;;;;;10.29;99.30;120040.63;5091486;28;20028;-68
2024/01/08 01:09:42;;;;;;;29.00;10.32;;;;;;;10.55;99.33;120424.16;5090335;28;20031;-68
2024/01/08 01:12:09;;;;;;;26.48;10.80;;;;;;;10.42;99.32;120455.22;5072397;28;20044;-72
2024/01/08 01:14:34;;;;;;;31.23;11.10;;;;;;;10.19;99.29;120544.34;5071893;28;20038;-68
2024/01/08 01:16:59;;;;;;;32.33;10.80;;;;;;;10.12;99.29;120236.38;5090931;28;20051;-68
2024/01/08 01:19:25;;;;;;;28.42;10.85;;;;;;;10.16;99.32;119858.66;5091037;28;20074;-68
2024/01/08 01:21:50;;;;;;;27.70;10.27;;;;;;;10.08;99.31;119732.75;5072039;28;20028;-68
2024/01/08 01:24:16;;;;;;;25.88;10.18;;;;;;;10.15;99.30;121273.75;5072473;28;20028;-69
2024/01/08 01:26:41;;;;;;;24.42;9.25;;;;;;;10.49;99.33;121670.06;5090522;28;20482;-69
2024/01/08 01:29:06;;;;;;;35.75;11.27;;;;;;;10.50;99.33;121512.53;5072338;28;20036;-68
2024/01/08 01:31:33;;;;;;;38.25;10.82;;;;;;;10.45;99.32;122010.75;5072179;28;20032;-69
2024/01/08 01:34:02;;;;;;;33.03;10.50;;;;;;;10.48;99.32;122194.88;5091144;28;20097;-69
2024/01/08 01:36:29;;;;;;;34.58;10.50;;;;;;;10.19;99.27;121777.72;5069439;28;20035;-69
2024/01/08 01:39:07;;;;;;;29.00;10.75;;;;;;;10.58;99.32;121976.41;5090975;28;20077;-70
2024/01/08 01:41:33;;;;;;;28.02;10.30;;;;;;;10.64;99.32;122227.56;5071006;28;20566;-69
2024/01/08 01:43:58;;;;;;;28.63;10.75;;;;;;;10.28;99.26;121955.59;5072135;28;20115;-69
2024/01/08 01:46:40;;;;;;;30.70;10.70;;;;;;;10.48;99.29;122324.31;5090371;28;20028;-69
2024/01/08 01:49:24;;;;;;;35.45;11.85;;;;;;;10.01;99.23;122686.63;5090259;28;20028;-68
2024/01/08 01:51:51;;;;;;;31.48;11.65;;;;;;;10.66;99.30;122624.66;5090399;28;20146;-69
2024/01/08 01:54:22;;;;;;;33.60;13.02;;;;;;;10.20;99.23;122527.28;5072210;28;20410;-69
2024/01/08 01:56:52;;;;;;;;;;;;;;;10.58;99.28;122614.41;5072611;28;20039;-68
2024/01/08 01:59:18;;;;;;;29.05;11.57;;;;;;;10.25;99.24;122665.41;5071933;28;19920;-69
2024/01/08 02:01:45;;;;;;;27.63;11.40;;;;;;;10.56;99.28;122455.81;5090449;28;20036;-73
2024/01/08 02:04:12;;;;;;;31.60;13.57;;;;;;;10.15;99.21;122079.91;5088580;28;20098;-69
2024/01/08 02:06:39;;;;;;;30.50;13.80;;;;;;;10.56;99.26;122153.94;5071379;28;20031;-70
2024/01/08 02:09:06;;;;;;;31.58;13.82;;;;;;;10.39;99.25;122049.66;5071707;28;20101;-69
2024/01/08 02:11:32;;;;;;;34.75;14.57;;;;;;;10.51;99.26;122354.50;5089835;28;20139;-69
2024/01/08 02:14:00;;;;;;;28.90;13.48;;;;;;;10.49;99.25;122501.31;5071411;28;20115;-69
2024/01/08 02:16:26;;;;;;;28.13;13.70;;;;;;;10.19;99.21;122728.75;5089431;28;20494;-69
2024/01/08 02:18:51;;;;;;;28.67;13.65;;;;;;;10.56;99.26;122995.63;5089404;28;20062;-69
2024/01/08 02:21:17;;;;;;;29.55;13.73;;;;;;;10.41;99.24;122868.59;5089863;28;20051;-70
2024/01/08 02:23:42;;;;;;;26.88;13.32;;;;;;;10.40;99.24;122661.88;5089792;28;20032;-69
2024/01/08 02:26:09;;;;;;;26.02;12.45;;;;;;;10.43;99.25;122772.94;5090016;28;20032;-69
2024/01/08 02:28:35;;;;;;;21.90;11.88;;;;;;;10.46;99.24;123010.34;5089649;28;20055;-69
2024/01/08 02:31:00;;;;;;;27.38;12.80;;;;;;;10.44;99.24;122879.84;5089734;28;20044;-68
2024/01/08 02:33:25;;;;;;;24.88;11.98;;;;;;;10.42;99.23;122935.59;5089207;28;20058;-69
2024/01/08 02:35:51;;;;;;;22.17;12.10;;;;;;;10.50;99.25;123205.88;5089228;28;20124;-69
2024/01/08 02:38:17;;;;;;;28.80;11.85;;;;;;;10.41;99.23;122927.41;5089844;28;20405;-68
2024/01/08 02:40:43;;;;;;;20.25;10.52;;;;;;;10.57;99.24;123236.66;5089095;28;20038;-69
2024/01/08 02:43:08;;;;;;;23.35;11.07;;;;;;;10.48;99.23;123188.94;5069719;28;20027;-69
2024/01/08 02:45:33;;;;;;;24.08;10.23;;;;;;;10.14;99.18;122765.53;5070273;28;20119;-69
2024/01/08 02:47:59;;;;;;;21.27;9.45;;;;;;;10.53;99.23;122941.88;5071025;28;20116;-69
2024/01/08 02:50:24;;;;;;;18.63;8.90;;;;;;;10.20;99.21;122879.13;5089002;28;20059;-68
2024/01/08 02:52:50;;;;;;;20.02;9.25;;;;;;;10.25;99.19;122914.97;5087562;28;20038;-68
2024/01/08 02:55:15;;;;;;;19.98;9.15;;;;;;;10.25;99.19;122669.47;5089074;28;20032;-71
2024/01/08 02:57:40;;;;;;;15.05;8.80;;;;;;;10.59;99.23;122835.47;5070614;28;20028;-72
2024/01/08 03:00:07;;;;;;;19.42;9.15;;;;;;;10.48;99.22;122702.38;5088877;28;20521;-68
2024/01/08 03:02:33;;;;;;;15.95;8.40;;;;;;;10.48;99.22;122435.28;5089347;28;20525;-68
2024/01/08 03:04:58;;;;;;;16.95;8.63;;;;;;;10.47;99.22;122210.75;5088699;28;20036;-69
2024/01/08 03:07:23;;;;;;;16.83;8.23;;;;;;;10.07;99.16;121795.16;5071198;28;20028;-68
2024/01/08 03:09:49;;;;;;;16.45;8.45;;;;;;;10.36;99.20;121665.06;5088722;28;20036;-69
2024/01/08 03:12:15;;;;;;;16.17;8.57;;;;;;;10.08;99.17;121413.84;5068707;28;20044;-69
2024/01/08 03:14:45;;;;;;;17.00;7.90;;;;;;;10.18;99.18;121344.75;5089279;28;20071;-69
2024/01/08 03:17:11;;;;;;;14.20;7.40;;;;;;;10.32;99.21;121186.53;5103685;28;20059;-68
2024/01/08 03:19:37;;;;;;;16.65;7.80;;;;;;;10.41;99.21;121147.53;5089089;28;20066;-69
2024/01/08 03:22:03;;;;;;;13.50;7.50;;;;;;;10.33;99.19;120999.44;5088904;28;20028;-68
2024/01/08 03:24:28;;;;;;;14.82;7.00;;;;;;;10.32;99.19;120838.91;5088891;28;20098;-72
2024/01/08 03:26:54;;;;;;;12.35;7.40;;;;;;;10.24;99.19;120562.06;5069837;28;20036;-69
2024/01/08 03:29:19;;;;;;;14.20;7.18;;;;;;;10.24;99.19;120490.50;5070781;28;20068;-69
2024/01/08 03:31:44;;;;;;;15.32;7.18;;;;;;;10.21;99.17;120460.47;5089102;28;20036;-69
2024/01/08 03:34:11;;;;;;;27.15;15.93;;;;;;;10.15;99.17;120176.00;5089388;28;20024;-68
2024/01/08 03:36:50;;;;;;;14.60;6.78;;;;;;;10.28;99.19;120613.56;5088464;28;20063;-72
2024/01/08 03:39:17;;;;;;;13.25;7.03;;;;;;;10.26;99.19;120543.09;5088473;28;20036;-69
2024/01/08 03:41:43;;;;;;;12.10;6.15;;;;;;;10.15;99.17;120568.47;5088243;28;20402;-69
2024/01/08 03:44:09;;;;;;;12.20;7.00;;;;;;;9.96;99.14;120531.13;5069402;28;20093;-68
2024/01/08 03:46:36;;;;;;;15.48;6.25;;;;;;;10.01;99.16;120386.91;5087602;28;20501;-69
2024/01/08 03:49:02;;;;;;;13.55;6.63;;;;;;;9.92;99.14;120290.66;5089059;28;20032;-69
2024/01/08 03:51:27;;;;;;;14.38;6.78;;;;;;;10.18;99.17;120079.81;5088241;28;20509;-69
2024/01/08 03:53:53;;;;;;;11.00;6.68;;;;;;;10.23;99.18;120054.13;5089699;28;20020;-69
2024/01/08 03:56:19;;;;;;;12.95;7.78;;;;;;;9.80;100.00;101939.81;5092435;28;20074;-69
2024/01/08 03:58:44;;;;;;;12.68;8.35;;;;;;;9.85;100.00;102059.22;5092854;28;20089;-69
2024/01/08 04:01:16;;;;;;;13.27;8.30;;;;;;;10.10;100.00;102267.84;5074160;28;20032;-69
2024/01/08 04:03:41;;;;;;;15.15;7.28;;;;;;;10.08;100.00;102484.69;5092609;28;20422;-69
2024/01/08 04:06:07;;;;;;;10.82;6.60;;;;;;;10.17;100.00;102742.47;5092605;28;20036;-70
2024/01/08 04:08:32;;;;;;;10.88;5.68;;;;;;;9.83;100.00;102823.94;5092176;28;20028;-69
2024/01/08 04:10:58;;;;;;;13.05;5.70;;;;;;;10.03;100.00;102855.69;5091940;28;20089;-69
2024/01/08 04:13:23;;;;;;;9.50;5.30;;;;;;;10.09;100.00;102899.03;5107245;28;20032;-71
2024/01/08 04:15:49;;;;;;;10.90;5.57;;;;;;;9.90;100.00;102946.91;5092495;28;20578;-69
2024/01/08 04:18:14;;;;;;;6.85;5.05;;;;;;;9.82;100.00;102913.69;5092111;28;20020;-69
2024/01/08 04:20:40;;;;;;;11.88;5.22;;;;;;;10.06;100.00;102946.44;5090970;28;20039;-68
2024/01/08 04:23:05;;;;;;;10.75;5.32;;;;;;;9.82;100.00;102880.66;5091871;28;20070;-68
2024/01/08 04:25:31;;;;;;;10.73;5.60;;;;;;;10.07;100.00;102943.03;5091214;28;20036;-69
2024/01/08 04:27:56;;;;;;;11.65;6.47;;;;;;;9.98;100.00;102904.72;5089567;28;20032;-70
2024/01/08 04:30:22;;;;;;;10.80;6.88;;;;;;;9.64;100.00;102826.91;5089114;28;20040;-69
2024/01/08 04:32:47;;;;;;;12.73;7.60;;;;;;;9.79;100.00;102829.78;5089719;28;20084;-68
2024/01/08 04:35:13;;;;;;;10.25;6.80;;;;;;;9.74;100.00;102892.34;5089143;28;20042;-68
2024/01/08 04:37:39;;;;;;;10.65;6.95;;;;;;;9.71;100.00;102932.91;5074098;28;21178;-67
2024/01/08 04:40:05;;;;;;;9.82;7.00;;;;;;;9.97;100.00;102980.09;5089685;28;20028;-69
2024/01/08 04:42:30;;;;;;;12.10;6.82;;;;;;;10.01;100.00;103019.16;5078832;28;20084;-68
2024/01/08 04:44:56;;;;;;;11.52;5.88;;;;;;;9.77;100.00;102975.38;5090316;28;20051;-72
2024/01/08 04:47:22;;;;;;;8.13;5.07;;;;;;;9.92;100.00;103004.56;5074262;28;20028;-69
2024/01/08 04:49:48;;;;;;;9.00;5.50;;;;;;;9.74;100.00;103023.59;5075118;28;20071;-68
2024/01/08 04:52:13;;;;;;;11.20;5.72;;;;;;;9.86;100.00;103044.22;5074122;28;20039;-69
2024/01/08 04:54:42;;;;;;;8.77;5.20;;;;;;;9.87;100.00;103112.88;5089351;28;20118;-69
2024/01/08 04:57:07;;;;;;;7.88;5.20;;;;;;;9.78;100.00;103092.31;5089473;28;20098;-69
2024/01/08 04:59:32;;;;;;;10.60;5.75;;;;;;;10.11;100.00;103173.66;5090134;28;20032;-68
2024/01/08 05:01:58;;;;;;;8.43;5.50;;;;;;;9.90;100.00;103100.25;5089457;28;20046;-68
2024/01/08 05:04:23;;;;;;;7.65;5.10;;;;;;;10.15;100.00;103165.28;5091830;28;20032;-76
2024/01/08 05:06:50;;;;;;;10.13;5.57;;;;;;;10.08;100.00;103080.34;5088860;28;20060;-70
2024/01/08 05:09:15;;;;;;;9.00;5.32;;;;;;;10.00;100.00;103061.50;5087885;28;20414;-71
2024/01/08 05:11:41;;;;;;;8.88;4.70;;;;;;;10.07;100.00;103081.19;5088616;28;20044;-70
2024/01/08 05:14:06;;;;;;;8.07;4.20;;;;;;;9.63;100.00;103055.50;5089682;28;20028;-70
2024/01/08 05:16:32;;;;;;;7.82;4.10;;;;;;;9.72;100.00;103069.28;5089586;28;20028;-71
2024/01/08 05:19:02;;;;;;;8.38;4.47;;;;;;;9.83;100.00;103110.19;5075085;28;20030;-71
2024/01/08 05:21:27;;;;;;;8.98;4.28;;;;;;;10.04;100.00;103175.13;5107847;27;20036;-69
2024/01/08 05:23:52;;;;;;;8.90;5.60;;;;;;;10.02;100.00;103169.16;5089520;28;20550;-71
2024/01/08 05:26:18;;;;;;;8.57;6.40;;;;;;;10.15;100.00;103226.31;5089253;28;20131;-69
2024/01/08 05:28:43;;;;;;;10.27;5.45;;;;;;;9.61;100.00;103053.75;5088168;28;20116;-69
2024/01/08 05:31:09;;;;;;;8.65;5.53;;;;;;;9.82;100.00;103081.41;5087812;28;20497;-69
2024/01/08 05:33:34;;;;;;;15.15;8.98;;;;;;;10.09;100.00;103162.56;5089432;28;20085;-71
2024/01/08 05:36:00;;;;;;;9.32;5.50;;;;;;;10.13;100.00;103144.91;5087813;28;20383;-71
2024/01/08 05:38:25;;;;;;;9.27;5.45;;;;;;;9.55;100.00;103037.50;5071849;28;20043;-67
2024/01/08 05:40:55;;;;;;;11.30;6.10;;;;;;;9.85;100.00;103085.69;5072320;28;20032;-68
2024/01/08 05:43:20;;;;;;;11.43;7.82;;;;;;;11.25;100.00;103494.75;5090557;28;20093;-71
2024/01/08 05:45:46;;;;;;;16.67;13.73;;;;;;;9.92;100.00;103157.06;5071804;28;20032;-69
2024/01/08 05:48:11;;;;;;;11.52;9.50;;;;;;;9.99;100.00;103113.16;5088611;28;20032;-71
2024/01/08 05:50:37;;;;;;;9.98;6.93;;;;;;;9.69;100.00;102979.41;5070676;28;20560;-70
2024/01/08 05:53:02;;;;;;;6.53;5.05;;;;;;;9.93;100.00;103059.66;5071128;28;20062;-70
2024/01/08 05:55:28;;;;;;;6.85;5.22;;;;;;;9.49;100.00;102935.75;5089441;28;20820;-70
2024/01/08 05:57:53;;;;;;;9.90;6.82;;;;;;;9.51;100.00;102913.78;5089100;28;20039;-70
2024/01/08 06:00:19;;;;;;;12.40;6.55;;;;;;;9.54;100.00;102913.88;5088665;28;20028;-69
2024/01/08 06:02:44;;;;;;;7.50;4.78;;;;;;;9.74;100.00;102907.59;5089138;28;20071;-69
2024/01/08 06:05:11;;;;;;;6.25;4.00;;;;;;;9.63;100.00;102887.84;5088978;28;20036;-72
2024/01/08 06:07:37;;;;;;;5.40;4.20;;;;;;;9.13;100.00;102783.41;5087903;28;20028;-69
2024/01/08 06:10:03;;;;;;;6.20;3.47;;;;;;;9.58;100.00;102900.44;5088835;28;20548;-70
2024/01/08 06:12:29;;;;;;;6.13;3.60;;;;;;;9.72;100.00;102965.13;5069886;28;20044;-69
2024/01/08 06:14:55;;;;;;;7.47;3.25;;;;;;;9.40;100.00;102968.56;5087985;28;20047;-75
2024/01/08 06:17:21;;;;;;;6.25;2.70;;;;;;;9.57;100.00;103064.66;5087715;28;20031;-70
2024/01/08 06:19:47;;;;;;;8.93;3.67;;;;;;;9.36;100.00;103043.78;5088906;28;20403;-70
2024/01/08 06:22:12;;;;;;;9.88;4.82;;;;;;;9.31;100.00;103011.50;5087874;28;20098;-73
2024/01/08 06:24:38;;;;;;;7.47;4.60;;;;;;;9.55;100.00;103038.38;5088473;28;20398;-70
2024/01/08 06:27:03;;;;;;;8.93;5.00;;;;;;;9.35;100.00;103024.28;5087663;28;20090;-70
2024/01/08 06:29:29;;;;;;;9.68;6.95;;;;;;;9.42;100.00;103152.28;5068500;28;20094;-73
2024/01/08 06:31:54;;;;;;;13.43;8.63;;;;;;;9.67;100.00;103314.72;5087627;28;20471;-69
2024/01/08 06:34:19;;;;;;;8.57;5.80;;;;;;;9.69;100.00;103407.09;5087578;28;20020;-70
2024/01/08 06:36:45;;;;;;;10.98;7.65;;;;;;;9.41;100.00;103396.88;5088894;28;20040;-70
2024/01/08 06:39:10;;;;;;;7.03;5.45;;;;;;;9.70;100.00;103468.94;5087780;28;20035;-70
2024/01/08 06:41:37;;;;;;;9.48;6.85;;;;;;;9.41;100.00;103358.78;5088223;28;20051;-69
2024/01/08 06:44:06;;;;;;;8.65;6.40;;;;;;;9.64;100.00;103370.53;5088874;28;20028;-71
2024/01/08 06:46:31;;;;;;;9.05;6.00;;;;;;;9.71;100.00;103463.91;5087902;28;20526;-69
2024/01/08 06:49:00;;;;;;;6.45;5.03;;;;;;;9.72;100.00;103508.84;5087907;28;20059;-75
2024/01/08 06:51:25;;;;;;;5.75;4.13;;;;;;;9.69;100.00;103573.91;5070161;28;20107;-70
2024/01/08 06:53:51;;;;;;;6.40;5.15;;;;;;;9.72;100.00;103597.78;5069677;28;20111;-70
2024/01/08 06:56:16;;;;;;;7.97;5.07;;;;;;;9.43;100.00;103527.31;5087962;28;20032;-70
2024/01/08 06:58:42;;;;;;;7.90;6.10;;;;;;;9.79;100.00;103601.38;5088071;28;20028;-75
2024/01/08 07:01:07;;;;;;;10.63;7.38;;;;;;;9.75;100.00;103594.44;5088340;28;20027;-70
2024/01/08 07:03:33;;;;;;;11.85;10.30;;;;;;;9.76;100.00;103576.75;5070028;28;20454;-70
2024/01/08 07:05:59;;;;;;;19.60;15.55;;;;;;;9.76;100.00;103464.94;5087603;28;20111;-74
2024/01/08 07:08:24;;;;;;;19.70;14.45;;;;;;;9.78;100.00;103513.25;5069860;28;20127;-70
2024/01/08 07:10:50;;;;;;;18.77;13.85;;;;;;;9.86;100.00;103533.03;5087434;28;20060;-70
2024/01/08 07:13:17;;;;;;;19.15;13.80;;;;;;;9.90;100.00;103557.72;5087482;28;20024;-70
2024/01/08 07:15:47;;;;;;;12.13;10.23;;;;;;;9.80;100.00;103507.41;5071420;28;20032;-70
2024/01/08 07:18:13;;;;;;;9.80;7.78;;;;;;;9.82;100.00;103545.56;5091246;28;20032;-70
2024/01/08 07:20:40;;;;;;;10.52;8.25;;;;;;;9.67;100.00;103551.00;5069427;28;20067;-69
2024/01/08 07:23:08;;;;;;;16.92;12.50;;;;;;;9.58;100.00;103510.94;5087925;28;20586;-70
2024/01/08 07:25:38;;;;;;;22.60;17.95;;;;;;;9.94;100.00;103581.56;5088173;28;20509;-69
2024/01/08 07:28:08;;;;;;;25.35;20.58;;;;;;;9.96;100.00;103590.97;5088416;28;20027;-69
2024/01/08 07:30:35;;;;;;;24.75;19.70;;;;;;;9.72;100.00;103491.06;5072288;28;20028;-69
2024/01/08 07:33:00;;;;;;;29.55;23.73;;;;;;;9.97;100.00;103534.22;5091838;28;20040;-75
2024/01/08 07:35:26;;;;;;;25.20;20.67;;;;;;;9.95;100.00;103510.44;5091284;28;20096;-70
2024/01/08 07:37:55;;;;;;;26.52;23.10;;;;;;;10.01;100.00;103485.19;5072755;28;20043;-70
2024/01/08 07:40:27;;;;;;;33.40;25.58;;;;;;;9.83;100.00;103469.38;5091493;28;20509;-71
2024/01/08 07:42:57;;;;;;;22.80;20.38;;;;;;;10.13;100.00;103599.16;5088593;28;20031;-70
2024/01/08 07:45:23;;;;;;;23.90;20.35;;;;;;;9.90;100.00;103579.72;5073255;28;20031;-71
2024/01/08 07:47:49;;;;;;;22.88;19.58;;;;;;;9.75;100.00;103543.63;5091555;28;20024;-71
2024/01/08 07:50:16;;;;;;;26.92;21.48;;;;;;;10.02;100.00;103587.75;5073099;28;20024;-70
2024/01/08 07:52:42;;;;;;;29.50;26.08;;;;;;;10.13;100.00;103620.38;5072960;28;20418;-70
2024/01/08 07:55:08;;;;;;;114.30;102.35;;;;;;;9.78;100.00;103529.38;5089327;28;20032;-70
2024/01/08 07:57:34;;;;;;;76.43;68.00;;;;;;;9.98;100.00;103535.94;5091836;28;20166;-70
2024/01/08 08:00:00;;;;;;;52.92;47.22;;;;;;;9.94;100.00;103572.28;5072908;28;20024;-71
2024/01/08 08:02:26;;;;;;;41.55;37.03;;;;;;;10.06;100.00;103653.16;5090548;28;20048;-71
2024/01/08 08:04:53;;;;;;;51.40;45.20;;;;;;;9.83;100.00;103611.69;5073047;28;20031;-70
2024/01/08 08:07:19;;;;;;;99.25;88.63;;;;;;;10.05;100.00;103702.25;5072816;28;20036;-72
2024/01/08 08:09:45;;;;;;;117.07;105.18;;;;;;;10.15;100.00;103755.19;5090809;28;20042;-71
2024/01/08 08:12:10;;;;;;;53.88;47.88;;;;;;;9.85;100.00;103649.84;5086864;28;20124;-70
2024/01/08 08:14:36;;;;;;;71.05;63.25;;;;;;;9.95;100.00;103705.28;5084998;28;20024;-71
2024/01/08 08:17:03;;;;;;;60.25;53.53;;;;;;;10.19;100.00;103716.34;5060515;28;20031;-70
2024/01/08 08:19:40;;;;;;;42.55;37.58;;;;;;;9.95;100.00;103654.44;5058824;28;20077;-70
2024/01/08 08:22:06;;;;;;;44.70;39.15;;;;;;;10.06;100.00;103668.41;5084246;28;20028;-71
2024/01/08 08:24:31;;;;;;;37.75;32.83;;;;;;;9.77;100.00;103565.75;5082178;28;20571;-71
2024/01/08 08:26:56;;;;;;;29.90;25.20;;;;;;;10.01;100.00;103668.25;5084970;28;20024;-71
2024/01/08 08:29:22;;;;;;;15.93;14.13;;;;;;;9.67;100.00;103502.72;5077106;28;20082;-70
2024/01/08 08:31:47;;;;;;;17.02;14.38;;;;;;;9.64;100.00;103520.44;5084038;28;20047;-71
2024/01/08 08:34:13;;;;;;;18.65;16.38;;;;;;;9.83;100.00;103634.56;5082966;28;20024;-71
2024/01/08 08:36:39;;;;;;;16.85;13.90;;;;;;;9.91;100.00;103726.31;5063466;28;20483;-71
2024/01/08 08:39:05;;;;;;;18.02;13.75;;;;;;;9.85;100.00;103724.44;5075053;28;20028;-70
2024/01/08 08:41:31;;;;;;;17.80;13.43;;;;;;;9.82;100.00;103759.06;5076222;28;20024;-71
2024/01/08 08:43:57;;;;;;;15.20;11.45;;;;;;;10.16;100.00;103892.56;5059924;28;20479;-71
2024/01/08 08:46:22;;;;;;;15.68;12.18;;;;;;;10.11;100.00;103911.88;5061368;28;20035;-73
2024/01/08 08:48:48;;;;;;;13.82;10.10;;;;;;;10.20;100.00;103926.63;5080114;28;20028;-70
2024/01/08 08:51:13;;;;;;;18.05;12.70;;;;;;;10.08;100.00;103834.59;5080544;28;20040;-70
2024/01/08 08:53:39;;;;;;;12.60;9.90;;;;;;;10.08;100.00;103858.31;5064053;28;20039;-71
2024/01/08 08:56:04;;;;;;;11.80;7.68;;;;;;;9.97;100.00;103841.81;5063497;28;20394;-71
2024/01/08 08:58:30;;;;;;;13.95;10.75;;;;;;;10.31;100.00;103986.38;5064677;28;20512;-71
2024/01/08 09:00:56;;;;;;;15.23;10.10;;;;;;;9.84;100.00;103915.03;5066227;28;20040;-70
2024/01/08 09:03:22;;;;;;;21.25;15.40;;;;;;;10.21;100.00;103975.00;5065725;28;20012;-73
2024/01/08 09:05:47;;;;;;;20.98;14.32;;;;;;;10.30;100.00;104086.41;5059736;28;20040;-70
2024/01/08 09:08:13;;;;;;;14.27;10.93;;;;;;;10.27;100.00;104150.75;5082770;28;20029;-70
2024/01/08 09:10:38;;;;;;;15.50;10.18;;;;;;;9.98;100.00;104128.28;5081156;28;20020;-71
2024/01/08 09:13:03;;;;;;;26.10;18.65;;;;;;;10.32;100.00;104182.31;5122165;27;20031;-71
2024/01/08 09:15:29;;;;;;;22.48;13.20;;;;;;;10.07;100.00;104130.34;5119431;27;20028;-71
2024/01/08 09:17:54;;;;;;;22.23;17.00;;;;;;;10.08;100.00;104224.47;5125371;27;20023;-69
2024/01/08 09:20:21;;;;;;;23.52;18.60;;;;;;;10.35;100.00;104344.41;5120314;27;20102;-72
2024/01/08 09:22:46;;;;;;;19.08;15.35;;;;;;;10.30;100.00;104310.28;5125759;27;20038;-71
2024/01/08 09:25:12;;;;;;;20.17;15.77;;;;;;;10.20;100.00;104303.88;5102901;28;20019;-70
2024/01/08 09:27:39;;;;;;;34.00;27.13;;;;;;;10.18;100.00;104351.28;5121682;27;20031;-71
2024/01/08 09:30:06;;;;;;;16.30;12.30;;;;;;;10.25;100.00;104350.75;5118671;27;20035;-71
2024/01/08 09:32:31;;;;;;;24.90;20.10;;;;;;;10.10;100.00;104336.50;5115061;27;20106;-70
2024/01/08 09:34:57;;;;;;;18.48;14.43;;;;;;;10.04;100.00;104361.63;5103313;27;20463;-70
2024/01/08 09:37:22;;;;;;;18.63;16.25;;;;;;;10.45;100.00;104463.59;5122705;27;20031;-71
2024/01/08 09:39:47;;;;;;;19.17;13.93;;;;;;;10.37;100.00;104403.84;5122950;27;20506;-70
2024/01/08 09:42:13;;;;;;;17.85;15.50;;;;;;;10.14;100.00;104374.84;5100884;27;20100;-71
2024/01/08 09:44:45;;;;;;;22.30;17.83;;;;;;;10.34;100.00;104465.63;5106490;27;20528;-71
2024/01/08 09:47:12;;;;;;;24.63;20.42;;;;;;;10.46;100.00;104506.91;5119433;27;20056;-73
2024/01/08 09:49:39;;;;;;;30.23;25.25;;;;;;;10.23;100.00;104464.28;5096092;27;20042;-71
2024/01/08 09:52:08;;;;;;;42.78;36.25;;;;;;;10.29;100.00;104540.91;5098636;27;20057;-70
2024/01/08 09:54:36;;;;;;;30.45;27.17;;;;;;;10.55;100.00;104649.00;5116856;27;20031;-70
2024/01/08 09:57:03;;;;;;;30.40;27.17;;;;;;;10.30;100.00;104646.94;5102203;27;20383;-71
2024/01/08 09:59:29;;;;;;;24.83;20.73;;;;;;;10.32;100.00;104500.31;5120359;27;20023;-71
2024/01/08 10:01:56;;;;;;;20.48;17.85;;;;;;;10.37;100.00;104521.78;5116451;27;20081;-72
2024/01/08 10:04:24;;;;;;;18.60;16.17;;;;;;;9.89;100.00;104401.59;5117003;27;20516;-71
2024/01/08 10:07:02;;;;;;;16.70;12.63;;;;;;;10.44;100.00;104605.22;5115047;27;20409;-72
2024/01/08 10:09:28;;;;;;;14.60;11.27;;;;;;;9.95;100.00;104605.28;5109865;27;20881;-71
2024/01/08 10:11:53;;;;;;;10.88;7.57;;;;;;;9.99;100.00;104678.38;5113483;27;20031;-71
2024/01/08 10:14:19;;;;;;;10.30;7.85;;;;;;;9.91;100.00;104567.78;5113715;27;20077;-70
2024/01/08 10:16:55;;;;;;;13.35;10.13;;;;;;;9.73;100.00;104483.88;5117643;27;20027;-74
2024/01/08 10:19:23;;;;;;;10.02;7.40;;;;;;;9.82;100.00;104425.88;5116399;27;20405;-70
2024/01/08 10:22:08;;;;;;;11.05;7.88;;;;;;;9.85;100.00;104282.75;5114368;27;20063;-69
2024/01/08 10:24:35;;;;;;;12.38;8.50;;;;;;;9.87;100.00;104212.53;5095003;27;20028;-71
2024/01/08 10:27:02;;;;;;;12.13;8.65;;;;;;;9.80;100.00;104152.97;5094145;27;20031;-74
2024/01/08 10:29:27;;;;;;;13.25;9.32;;;;;;;9.71;100.00;103983.94;5115338;27;20358;-71
2024/01/08 10:32:06;;;;;;;7.95;5.80;;;;;;;9.72;100.00;103928.13;5095878;28;20027;-73
2024/01/08 10:34:34;;;;;;;11.07;8.10;;;;;;;9.66;100.00;103823.69;5112943;27;20074;-70
2024/01/08 10:36:59;;;;;;;10.75;7.35;;;;;;;9.91;100.00;103835.63;5095766;27;20401;-71
2024/01/08 10:39:30;;;;;;;17.80;12.00;;;;;;;9.46;100.00;103673.09;5113313;27;20031;-68
2024/01/08 10:41:57;;;;;;;10.20;7.05;;;;;;;10.31;100.00;103933.84;5118004;27;20028;-72
2024/01/08 10:44:23;;;;;;;9.38;6.60;;;;;;;9.52;100.00;103588.59;5115060;27;20477;-72
2024/01/08 10:46:56;;;;;;;9.98;7.05;;;;;;;9.68;100.00;103564.59;5111416;27;20036;-71
2024/01/08 10:49:30;;;;;;;8.55;7.03;;;;;;;9.51;100.00;103528.44;5097440;27;20016;-75
2024/01/08 10:51:59;;;;;;;7.88;5.38;;;;;;;9.71;100.00;103514.72;5118440;27;20034;-71
2024/01/08 10:54:34;;;;;;;5.57;4.10;;;;;;;9.66;100.00;103452.75;5098280;27;20404;-71
2024/01/08 10:57:03;;;;;;;6.60;4.68;;;;;;;9.24;100.00;103340.50;5118133;27;20031;-71
2024/01/08 10:59:29;;;;;;;4.13;2.30;;;;;;;9.27;100.00;103335.50;5118950;27;20031;-73
2024/01/08 11:01:55;;;;;;;3.60;2.00;;;;;;;8.97;100.00;103207.66;5093716;28;20436;-71
2024/01/08 11:04:20;;;;;;;4.70;3.03;;;;;;;9.23;100.00;103238.91;5120787;27;20038;-70
2024/01/08 11:06:47;;;;;;;2.70;1.98;;;;;;;9.19;100.00;103182.09;5097581;28;20047;-72
2024/01/08 11:09:31;;;;;;;4.25;2.50;;;;;;;9.21;100.00;103195.69;5099428;28;20016;-72
2024/01/08 11:11:57;;;;;;;3.55;2.15;;;;;;;9.22;100.00;103188.94;5101447;27;20093;-72